Aviation Digital Data Service (ADDS)

Output produced by METARs form (1856 UTC 19 August 2019)
found at http://www.aviationweather.gov/metar/data/
 
METAR text: KUNV 191853Z 32004KT 10SM SCT050 30/19 A3005
Conditions at: KUNV (STATE COLLEGE , PA, US) observed 1853 UTC 19 August 2019
Temperature: 30.0°C (86°F)
Dewpoint: 19.0°C (66°F) [RH = 52%]
Pressure (altimeter): 30.05 inches Hg (1017.7 mb)
Winds: from the NW (320 degrees) at 5 MPH (4 knots; 2.1 m/s)
Visibility: 10 or more miles (16+ km)
Ceiling: at least 12,000 feet AGL
Clouds: scattered clouds at 5000 feet AGL
Weather: no significant weather observed at this time

METAR text: KUNV 191753Z 00000KT 10SM SCT045 29/20 A3006
Conditions at: KUNV (STATE COLLEGE , PA, US) observed 1753 UTC 19 August 2019
Temperature: 29.0°C (84°F)
Dewpoint: 20.0°C (68°F) [RH = 58%]
Pressure (altimeter): 30.06 inches Hg (1018.0 mb)
Winds: calm
Visibility: 10 or more miles (16+ km)
Ceiling: at least 12,000 feet AGL
Clouds: scattered clouds at 4500 feet AGL
Weather: no significant weather observed at this time

METAR text: KUNV 191653Z 00000KT 10SM SCT036 SCT041 SCT060 27/20 A3007
Conditions at: KUNV (STATE COLLEGE , PA, US) observed 1653 UTC 19 August 2019
Temperature: 27.0°C (81°F)
Dewpoint: 20.0°C (68°F) [RH = 66%]
Pressure (altimeter): 30.07 inches Hg (1018.4 mb)
Winds: calm
Visibility: 10 or more miles (16+ km)
Ceiling: at least 12,000 feet AGL
Clouds: scattered clouds at 3600 feet AGL
scattered clouds at 4100 feet AGL
scattered clouds at 6000 feet AGL
Weather: no significant weather observed at this time

METAR text: KUNV 191553Z 18003KT 10SM SKC 26/19 A3008
Conditions at: KUNV (STATE COLLEGE , PA, US) observed 1553 UTC 19 August 2019
Temperature: 26.0°C (79°F)
Dewpoint: 19.0°C (66°F) [RH = 65%]
Pressure (altimeter): 30.08 inches Hg (1018.7 mb)
Winds: from the S (180 degrees) at 3 MPH (3 knots; 1.5 m/s)
Visibility: 10 or more miles (16+ km)
Ceiling: at least 12,000 feet AGL
Clouds: clear skies
Weather: no significant weather observed at this time

METAR text: KUNV 191453Z 19003KT 10SM SKC 25/19 A3007
Conditions at: KUNV (STATE COLLEGE , PA, US) observed 1453 UTC 19 August 2019
Temperature: 25.0°C (77°F)
Dewpoint: 19.0°C (66°F) [RH = 69%]
Pressure (altimeter): 30.07 inches Hg (1018.4 mb)
Winds: from the S (190 degrees) at 3 MPH (3 knots; 1.5 m/s)
Visibility: 10 or more miles (16+ km)
Ceiling: at least 12,000 feet AGL
Clouds: clear skies
Weather: no significant weather observed at this time

METAR text: KUNV 191353Z 24005KT 10SM SKC 22/19 A3007
Conditions at: KUNV (STATE COLLEGE , PA, US) observed 1353 UTC 19 August 2019
Temperature: 22.0°C (72°F)
Dewpoint: 19.0°C (66°F) [RH = 83%]
Pressure (altimeter): 30.07 inches Hg (1018.4 mb)
Winds: from the WSW (240 degrees) at 6 MPH (5 knots; 2.6 m/s)
Visibility: 10 or more miles (16+ km)
Ceiling: at least 12,000 feet AGL
Clouds: clear skies
Weather: no significant weather observed at this time

METAR text: KUNV 191253Z 00000KT 10SM SKC 20/19 A3005
Conditions at: KUNV (STATE COLLEGE , PA, US) observed 1253 UTC 19 August 2019
Temperature: 20.0°C (68°F)
Dewpoint: 19.0°C (66°F) [RH = 94%]
Pressure (altimeter): 30.05 inches Hg (1017.7 mb)
Winds: calm
Visibility: 10 or more miles (16+ km)
Ceiling: at least 12,000 feet AGL
Clouds: clear skies
Weather: no significant weather observed at this time

METAR text: KUNV 191153Z 00000KT 10SM SKC 19/18 A3001
Conditions at: KUNV (STATE COLLEGE , PA, US) observed 1153 UTC 19 August 2019
Temperature: 19.0°C (66°F)
Dewpoint: 18.0°C (64°F) [RH = 94%]
Pressure (altimeter): 30.01 inches Hg (1016.3 mb)
Winds: calm
Visibility: 10 or more miles (16+ km)
Ceiling: at least 12,000 feet AGL
Clouds: clear skies
Weather: no significant weather observed at this time

METAR text: KUNV 191053Z 00000KT 10SM SKC 19/18 A3000
Conditions at: KUNV (STATE COLLEGE , PA, US) observed 1053 UTC 19 August 2019
Temperature: 19.0°C (66°F)
Dewpoint: 18.0°C (64°F) [RH = 94%]
Pressure (altimeter): 30.00 inches Hg (1016.0 mb)
Winds: calm
Visibility: 10 or more miles (16+ km)
Ceiling: at least 12,000 feet AGL
Clouds: clear skies
Weather: no significant weather observed at this time

METAR text: KUNV 190953Z 00000KT 10SM SCT100 SCT120 19/18 A3003
Conditions at: KUNV (STATE COLLEGE , PA, US) observed 0953 UTC 19 August 2019
Temperature: 19.0°C (66°F)
Dewpoint: 18.0°C (64°F) [RH = 94%]
Pressure (altimeter): 30.03 inches Hg (1017.0 mb)
Winds: calm
Visibility: 10 or more miles (16+ km)
Ceiling: at least 12,000 feet AGL
Clouds: scattered clouds at 10000 feet AGL
scattered clouds at 12000 feet AGL
Weather: no significant weather observed at this time

METAR text: KUNV 190936Z AUTO 12004KT 10SM SCT050 SCT060 SCT070 19/19 A3003 RMK AO2 T01920185
Conditions at: KUNV (STATE COLLEGE , PA, US) observed 0936 UTC 19 August 2019
Temperature: 19.2°C (67°F)
Dewpoint: 18.5°C (65°F) [RH = 96%]
Pressure (altimeter): 30.03 inches Hg (1017.0 mb)
Winds: from the ESE (120 degrees) at 5 MPH (4 knots; 2.1 m/s)
Visibility: 10 or more miles (16+ km)
Ceiling: at least 12,000 feet AGL
Clouds: scattered clouds at 5000 feet AGL
scattered clouds at 6000 feet AGL
scattered clouds at 7000 feet AGL
Weather: automated observation with no human augmentation;
there may or may not be significant weather present at this time

METAR text: KUNV 190919Z AUTO 00000KT 10SM BKN050 OVC070 19/19 A3002 RMK AO2 T01900185
Conditions at: KUNV (STATE COLLEGE , PA, US) observed 0919 UTC 19 August 2019
Temperature: 19.0°C (66°F)
Dewpoint: 18.5°C (65°F) [RH = 97%]
Pressure (altimeter): 30.02 inches Hg (1016.7 mb)
Winds: calm
Visibility: 10 or more miles (16+ km)
Ceiling: 5000 feet AGL
Clouds: broken clouds at 5000 feet AGL
overcast cloud deck at 7000 feet AGL
Weather: automated observation with no human augmentation;
there may or may not be significant weather present at this time

METAR text: KUNV 190855Z AUTO 00000KT 10SM SCT055 SCT065 BKN100 19/18 A3000 RMK AO2 T01880182
Conditions at: KUNV (STATE COLLEGE , PA, US) observed 0855 UTC 19 August 2019
Temperature: 18.8°C (66°F)
Dewpoint: 18.2°C (65°F) [RH = 96%]
Pressure (altimeter): 30.00 inches Hg (1016.0 mb)
Winds: calm
Visibility: 10 or more miles (16+ km)
Ceiling: 10000 feet AGL
Clouds: scattered clouds at 5500 feet AGL
scattered clouds at 6500 feet AGL
broken clouds at 10000 feet AGL
Weather: automated observation with no human augmentation;
there may or may not be significant weather present at this time

METAR text: KUNV 190836Z AUTO 23003KT 10SM SCT100 SCT120 18/18 A2999 RMK AO2 T01820178
Conditions at: KUNV (STATE COLLEGE , PA, US) observed 0836 UTC 19 August 2019
Temperature: 18.2°C (65°F)
Dewpoint: 17.8°C (64°F) [RH = 98%]
Pressure (altimeter): 29.99 inches Hg (1015.7 mb)
Winds: from the SW (230 degrees) at 3 MPH (3 knots; 1.5 m/s)
Visibility: 10 or more miles (16+ km)
Ceiling: at least 12,000 feet AGL
Clouds: scattered clouds at 10000 feet AGL
scattered clouds at 12000 feet AGL
Weather: automated observation with no human augmentation;
there may or may not be significant weather present at this time

METAR text: KUNV 190815Z AUTO 24003KT 10SM SCT100 SCT120 18/18 A2999 RMK AO2 T01820178
Conditions at: KUNV (STATE COLLEGE , PA, US) observed 0815 UTC 19 August 2019
Temperature: 18.2°C (65°F)
Dewpoint: 17.8°C (64°F) [RH = 98%]
Pressure (altimeter): 29.99 inches Hg (1015.7 mb)
Winds: from the WSW (240 degrees) at 3 MPH (3 knots; 1.5 m/s)
Visibility: 10 or more miles (16+ km)
Ceiling: at least 12,000 feet AGL
Clouds: scattered clouds at 10000 feet AGL
scattered clouds at 12000 feet AGL
Weather: automated observation with no human augmentation;
there may or may not be significant weather present at this time

METAR text: KUNV 190758Z AUTO 24003KT 10SM BKN110 18/18 A2999 RMK AO2 T01820178
Conditions at: KUNV (STATE COLLEGE , PA, US) observed 0758 UTC 19 August 2019
Temperature: 18.2°C (65°F)
Dewpoint: 17.8°C (64°F) [RH = 98%]
Pressure (altimeter): 29.99 inches Hg (1015.7 mb)
Winds: from the WSW (240 degrees) at 3 MPH (3 knots; 1.5 m/s)
Visibility: 10 or more miles (16+ km)
Ceiling: 11000 feet AGL
Clouds: broken clouds at 11000 feet AGL
Weather: automated observation with no human augmentation;
there may or may not be significant weather present at this time

METAR text: KUNV 190735Z AUTO 24003KT 10SM SCT080 BKN110 19/18 A2998 RMK AO2 T01900182
Conditions at: KUNV (STATE COLLEGE , PA, US) observed 0735 UTC 19 August 2019
Temperature: 19.0°C (66°F)
Dewpoint: 18.2°C (65°F) [RH = 95%]
Pressure (altimeter): 29.98 inches Hg (1015.3 mb)
Winds: from the WSW (240 degrees) at 3 MPH (3 knots; 1.5 m/s)
Visibility: 10 or more miles (16+ km)
Ceiling: 11000 feet AGL
Clouds: scattered clouds at 8000 feet AGL
broken clouds at 11000 feet AGL
Weather: automated observation with no human augmentation;
there may or may not be significant weather present at this time

METAR text: KUNV 190715Z AUTO 00000KT 10SM SCT090 19/18 A2999 RMK AO2 T01870182
Conditions at: KUNV (STATE COLLEGE , PA, US) observed 0715 UTC 19 August 2019
Temperature: 18.7°C (66°F)
Dewpoint: 18.2°C (65°F) [RH = 97%]
Pressure (altimeter): 29.99 inches Hg (1015.7 mb)
Winds: calm
Visibility: 10 or more miles (16+ km)
Ceiling: at least 12,000 feet AGL
Clouds: scattered clouds at 9000 feet AGL
Weather: automated observation with no human augmentation;
there may or may not be significant weather present at this time

METAR text: KUNV 190656Z AUTO 24003KT 10SM CLR 20/18 A2999 RMK AO2 T01950181
Conditions at: KUNV (STATE COLLEGE , PA, US) observed 0656 UTC 19 August 2019
Temperature: 19.5°C (67°F)
Dewpoint: 18.1°C (65°F) [RH = 92%]
Pressure (altimeter): 29.99 inches Hg (1015.7 mb)
Winds: from the WSW (240 degrees) at 3 MPH (3 knots; 1.5 m/s)
Visibility: 10 or more miles (16+ km)
Ceiling: at least 12,000 feet AGL
Clouds: sky clear below 12,000 feet AGL
Weather: automated observation with no human augmentation;
there may or may not be significant weather present at this time

METAR text: KUNV 190637Z AUTO 25007KT 10SM CLR 20/18 A2999 RMK AO2 T01950182
Conditions at: KUNV (STATE COLLEGE , PA, US) observed 0637 UTC 19 August 2019
Temperature: 19.5°C (67°F)
Dewpoint: 18.2°C (65°F) [RH = 92%]
Pressure (altimeter): 29.99 inches Hg (1015.7 mb)
Winds: from the WSW (250 degrees) at 8 MPH (7 knots; 3.6 m/s)
Visibility: 10 or more miles (16+ km)
Ceiling: at least 12,000 feet AGL
Clouds: sky clear below 12,000 feet AGL
Weather: automated observation with no human augmentation;
there may or may not be significant weather present at this time

METAR text: KUNV 190619Z AUTO 26008KT 10SM CLR 20/18 A2999 RMK AO2 LTG DSNT SW T01960182
Conditions at: KUNV (STATE COLLEGE , PA, US) observed 0619 UTC 19 August 2019
Temperature: 19.6°C (67°F)
Dewpoint: 18.2°C (65°F) [RH = 92%]
Pressure (altimeter): 29.99 inches Hg (1015.7 mb)
Winds: from the W (260 degrees) at 9 MPH (8 knots; 4.1 m/s)
Visibility: 10 or more miles (16+ km)
Ceiling: at least 12,000 feet AGL
Clouds: sky clear below 12,000 feet AGL
Weather: automated observation with no human augmentation;
there may or may not be significant weather present at this time

METAR text: KUNV 190556Z AUTO 24004KT 10SM CLR 19/18 A2998 RMK AO2 T01870181 10206 20187
Conditions at: KUNV (STATE COLLEGE , PA, US) observed 0556 UTC 19 August 2019
Temperature: 18.7°C (66°F)
Dewpoint: 18.1°C (65°F) [RH = 96%]
Pressure (altimeter): 29.98 inches Hg (1015.3 mb)
Winds: from the WSW (240 degrees) at 5 MPH (4 knots; 2.1 m/s)
Visibility: 10 or more miles (16+ km)
Ceiling: at least 12,000 feet AGL
Clouds: sky clear below 12,000 feet AGL
Weather: automated observation with no human augmentation;
there may or may not be significant weather present at this time

METAR text: KUNV 190536Z AUTO 00000KT 10SM CLR 19/18 A2999 RMK AO2 T01900184
Conditions at: KUNV (STATE COLLEGE , PA, US) observed 0536 UTC 19 August 2019
Temperature: 19.0°C (66°F)
Dewpoint: 18.4°C (65°F) [RH = 96%]
Pressure (altimeter): 29.99 inches Hg (1015.7 mb)
Winds: calm
Visibility: 10 or more miles (16+ km)
Ceiling: at least 12,000 feet AGL
Clouds: sky clear below 12,000 feet AGL
Weather: automated observation with no human augmentation;
there may or may not be significant weather present at this time

METAR text: KUNV 190516Z AUTO 23007KT 10SM CLR 19/18 A2999 RMK AO2 T01900183
Conditions at: KUNV (STATE COLLEGE , PA, US) observed 0516 UTC 19 August 2019
Temperature: 19.0°C (66°F)
Dewpoint: 18.3°C (65°F) [RH = 96%]
Pressure (altimeter): 29.99 inches Hg (1015.7 mb)
Winds: from the SW (230 degrees) at 8 MPH (7 knots; 3.6 m/s)
Visibility: 10 or more miles (16+ km)
Ceiling: at least 12,000 feet AGL
Clouds: sky clear below 12,000 feet AGL
Weather: automated observation with no human augmentation;
there may or may not be significant weather present at this time

METAR text: KUNV 190457Z AUTO 26007KT 10SM CLR 20/18 A3000 RMK AO2 T01960184
Conditions at: KUNV (STATE COLLEGE , PA, US) observed 0457 UTC 19 August 2019
Temperature: 19.6°C (67°F)
Dewpoint: 18.4°C (65°F) [RH = 93%]
Pressure (altimeter): 30.00 inches Hg (1016.0 mb)
Winds: from the W (260 degrees) at 8 MPH (7 knots; 3.6 m/s)
Visibility: 10 or more miles (16+ km)
Ceiling: at least 12,000 feet AGL
Clouds: sky clear below 12,000 feet AGL
Weather: automated observation with no human augmentation;
there may or may not be significant weather present at this time

METAR text: KUNV 190440Z AUTO 26008KT 10SM CLR 20/18 A3000 RMK AO2 T01950183
Conditions at: KUNV (STATE COLLEGE , PA, US) observed 0440 UTC 19 August 2019
Temperature: 19.5°C (67°F)
Dewpoint: 18.3°C (65°F) [RH = 93%]
Pressure (altimeter): 30.00 inches Hg (1016.0 mb)
Winds: from the W (260 degrees) at 9 MPH (8 knots; 4.1 m/s)
Visibility: 10 or more miles (16+ km)
Ceiling: at least 12,000 feet AGL
Clouds: sky clear below 12,000 feet AGL
Weather: automated observation with no human augmentation;
there may or may not be significant weather present at this time

METAR text: KUNV 190435Z AUTO 25007KT 10SM CLR 20/19 A3000 RMK AO2 T01950185
Conditions at: KUNV (STATE COLLEGE , PA, US) observed 0435 UTC 19 August 2019
Temperature: 19.5°C (67°F)
Dewpoint: 18.5°C (65°F) [RH = 94%]
Pressure (altimeter): 30.00 inches Hg (1016.0 mb)
Winds: from the WSW (250 degrees) at 8 MPH (7 knots; 3.6 m/s)
Visibility: 10 or more miles (16+ km)
Ceiling: at least 12,000 feet AGL
Clouds: sky clear below 12,000 feet AGL
Weather: automated observation with no human augmentation;
there may or may not be significant weather present at this time

METAR text: KUNV 190416Z AUTO 27009KT 10SM CLR 20/19 A3000 RMK AO2 T01950185
Conditions at: KUNV (STATE COLLEGE , PA, US) observed 0416 UTC 19 August 2019
Temperature: 19.5°C (67°F)
Dewpoint: 18.5°C (65°F) [RH = 94%]
Pressure (altimeter): 30.00 inches Hg (1016.0 mb)
Winds: from the W (270 degrees) at 10 MPH (9 knots; 4.6 m/s)
Visibility: 10 or more miles (16+ km)
Ceiling: at least 12,000 feet AGL
Clouds: sky clear below 12,000 feet AGL
Weather: automated observation with no human augmentation;
there may or may not be significant weather present at this time

METAR text: KUNV 190356Z AUTO 25009KT 10SM CLR 19/18 A3000 RMK AO2 T01910183 403160167
Conditions at: KUNV (STATE COLLEGE , PA, US) observed 0356 UTC 19 August 2019
Temperature: 19.1°C (66°F)
Dewpoint: 18.3°C (65°F) [RH = 95%]
Pressure (altimeter): 30.00 inches Hg (1016.0 mb)
Winds: from the WSW (250 degrees) at 10 MPH (9 knots; 4.6 m/s)
Visibility: 10 or more miles (16+ km)
Ceiling: at least 12,000 feet AGL
Clouds: sky clear below 12,000 feet AGL
Weather: automated observation with no human augmentation;
there may or may not be significant weather present at this time

METAR text: KUNV 190337Z AUTO 25006KT 10SM CLR 19/18 A3000 RMK AO2 T01920180
Conditions at: KUNV (STATE COLLEGE , PA, US) observed 0337 UTC 19 August 2019
Temperature: 19.2°C (67°F)
Dewpoint: 18.0°C (64°F) [RH = 93%]
Pressure (altimeter): 30.00 inches Hg (1016.0 mb)
Winds: from the WSW (250 degrees) at 7 MPH (6 knots; 3.1 m/s)
Visibility: 10 or more miles (16+ km)
Ceiling: at least 12,000 feet AGL
Clouds: sky clear below 12,000 feet AGL
Weather: automated observation with no human augmentation;
there may or may not be significant weather present at this time

METAR text: KUNV 190319Z AUTO 23005KT 10SM CLR 19/18 A3000 RMK AO2 T01910184
Conditions at: KUNV (STATE COLLEGE , PA, US) observed 0319 UTC 19 August 2019
Temperature: 19.1°C (66°F)
Dewpoint: 18.4°C (65°F) [RH = 96%]
Pressure (altimeter): 30.00 inches Hg (1016.0 mb)
Winds: from the SW (230 degrees) at 6 MPH (5 knots; 2.6 m/s)
Visibility: 10 or more miles (16+ km)
Ceiling: at least 12,000 feet AGL
Clouds: sky clear below 12,000 feet AGL
Weather: automated observation with no human augmentation;
there may or may not be significant weather present at this time

METAR text: KUNV 190256Z AUTO 27005KT 10SM CLR 19/18 A3000 RMK AO2 T01880183
Conditions at: KUNV (STATE COLLEGE , PA, US) observed 0256 UTC 19 August 2019
Temperature: 18.8°C (66°F)
Dewpoint: 18.3°C (65°F) [RH = 97%]
Pressure (altimeter): 30.00 inches Hg (1016.0 mb)
Winds: from the W (270 degrees) at 6 MPH (5 knots; 2.6 m/s)
Visibility: 10 or more miles (16+ km)
Ceiling: at least 12,000 feet AGL
Clouds: sky clear below 12,000 feet AGL
Weather: automated observation with no human augmentation;
there may or may not be significant weather present at this time

METAR text: KUNV 190236Z AUTO 16004KT 10SM CLR 19/18 A3001 RMK AO2 T01900184
Conditions at: KUNV (STATE COLLEGE , PA, US) observed 0236 UTC 19 August 2019
Temperature: 19.0°C (66°F)
Dewpoint: 18.4°C (65°F) [RH = 96%]
Pressure (altimeter): 30.01 inches Hg (1016.3 mb)
Winds: from the SSE (160 degrees) at 5 MPH (4 knots; 2.1 m/s)
Visibility: 10 or more miles (16+ km)
Ceiling: at least 12,000 feet AGL
Clouds: sky clear below 12,000 feet AGL
Weather: automated observation with no human augmentation;
there may or may not be significant weather present at this time

METAR text: KUNV 190216Z AUTO 00000KT 10SM CLR 19/19 A3003 RMK AO2 LTG DSNT E T01900187
Conditions at: KUNV (STATE COLLEGE , PA, US) observed 0216 UTC 19 August 2019
Temperature: 19.0°C (66°F)
Dewpoint: 18.7°C (66°F) [RH = 98%]
Pressure (altimeter): 30.03 inches Hg (1017.0 mb)
Winds: calm
Visibility: 10 or more miles (16+ km)
Ceiling: at least 12,000 feet AGL
Clouds: sky clear below 12,000 feet AGL
Weather: automated observation with no human augmentation;
there may or may not be significant weather present at this time

METAR text: KUNV 190153Z 00000KT 10SM SCT120 20/19 A3003
Conditions at: KUNV (STATE COLLEGE , PA, US) observed 0153 UTC 19 August 2019
Temperature: 20.0°C (68°F)
Dewpoint: 19.0°C (66°F) [RH = 94%]
Pressure (altimeter): 30.03 inches Hg (1017.0 mb)
Winds: calm
Visibility: 10 or more miles (16+ km)
Ceiling: at least 12,000 feet AGL
Clouds: scattered clouds at 12000 feet AGL
Weather: no significant weather observed at this time

METAR text: KUNV 190053Z 00000KT 10SM SCT110 19/18 A3003
Conditions at: KUNV (STATE COLLEGE , PA, US) observed 0053 UTC 19 August 2019
Temperature: 19.0°C (66°F)
Dewpoint: 18.0°C (64°F) [RH = 94%]
Pressure (altimeter): 30.03 inches Hg (1017.0 mb)
Winds: calm
Visibility: 10 or more miles (16+ km)
Ceiling: at least 12,000 feet AGL
Clouds: scattered clouds at 11000 feet AGL
Weather: no significant weather observed at this time

METAR text: KUNV 182353Z 22003KT 10SM SCT120 21/19 A3001
Conditions at: KUNV (STATE COLLEGE , PA, US) observed 2353 UTC 18 August 2019
Temperature: 21.0°C (70°F)
Dewpoint: 19.0°C (66°F) [RH = 88%]
Pressure (altimeter): 30.01 inches Hg (1016.3 mb)
Winds: from the SW (220 degrees) at 3 MPH (3 knots; 1.5 m/s)
Visibility: 10 or more miles (16+ km)
Ceiling: at least 12,000 feet AGL
Clouds: scattered clouds at 12000 feet AGL
Weather: no significant weather observed at this time

METAR text: KUNV 182253Z 27003KT 10SM FEW060 22/18 A2998
Conditions at: KUNV (STATE COLLEGE , PA, US) observed 2253 UTC 18 August 2019
Temperature: 22.0°C (72°F)
Dewpoint: 18.0°C (64°F) [RH = 78%]
Pressure (altimeter): 29.98 inches Hg (1015.3 mb)
Winds: from the W (270 degrees) at 3 MPH (3 knots; 1.5 m/s)
Visibility: 10 or more miles (16+ km)
Ceiling: at least 12,000 feet AGL
Clouds: few clouds at 6000 feet AGL
Weather: no significant weather observed at this time

METAR text: KUNV 182212Z 24004KT 10SM SCT025 SCT055 20/18 A3002 RMK TSE 2212
Conditions at: KUNV (STATE COLLEGE , PA, US) observed 2212 UTC 18 August 2019
Temperature: 20.0°C (68°F)
Dewpoint: 18.0°C (64°F) [RH = 88%]
Pressure (altimeter): 30.02 inches Hg (1016.7 mb)
Winds: from the WSW (240 degrees) at 5 MPH (4 knots; 2.1 m/s)
Visibility: 10 or more miles (16+ km)
Ceiling: at least 12,000 feet AGL
Clouds: scattered clouds at 2500 feet AGL
scattered clouds at 5500 feet AGL
Weather: no significant weather observed at this time

METAR text: KUNV 182153Z 20008G17KT 10SM VCTS SCT060 20/17 A3002 RMK FREQ LTGICCG SE
Conditions at: KUNV (STATE COLLEGE , PA, US) observed 2153 UTC 18 August 2019
Temperature: 20.0°C (68°F)
Dewpoint: 17.0°C (63°F) [RH = 83%]
Pressure (altimeter): 30.02 inches Hg (1016.7 mb)
Winds: from the SSW (200 degrees) at 9 MPH (8 knots; 4.1 m/s)
gusting to 20 MPH (17 knots; 8.7 m/s)
Visibility: 10 or more miles (16+ km)
Ceiling: at least 12,000 feet AGL
Clouds: scattered clouds at 6000 feet AGL
Weather: VCTS  (thunderstorm in vicinity)

METAR text: KUNV 182053Z COR 25017G27KT 7SM +TSRA SCT021 BKN046 BKN060 20/17 A3002 RMK FREQ LTGICCG TS OHD MOV E
Conditions at: KUNV (STATE COLLEGE , PA, US) observed 2053 UTC 18 August 2019
Temperature: 20.0°C (68°F)
Dewpoint: 17.0°C (63°F) [RH = 83%]
Pressure (altimeter): 30.02 inches Hg (1016.7 mb)
Winds: from the WSW (250 degrees) at 20 MPH (17 knots; 8.7 m/s)
gusting to 31 MPH (27 knots; 13.9 m/s)
Visibility: 7 miles (11 km)
Ceiling: 4600 feet AGL
Clouds: scattered clouds at 2100 feet AGL
broken clouds at 4600 feet AGL
broken clouds at 6000 feet AGL
Weather: +TSRA  (heavy rain associated with thunderstorm(s))

METAR text: KUNV 182001Z COR 24007KT 10SM TS SCT050 SCT110 30/19 A3001 RMK FREQ LTGCG TS W MOV E
Conditions at: KUNV (STATE COLLEGE , PA, US) observed 2001 UTC 18 August 2019
Temperature: 30.0°C (86°F)
Dewpoint: 19.0°C (66°F) [RH = 52%]
Pressure (altimeter): 30.01 inches Hg (1016.3 mb)
Winds: from the WSW (240 degrees) at 8 MPH (7 knots; 3.6 m/s)
Visibility: 10 or more miles (16+ km)
Ceiling: at least 12,000 feet AGL
Clouds: scattered clouds at 5000 feet AGL
scattered clouds at 11000 feet AGL
Weather: TS  (thunderstorm)

METAR text: KUNV 181959Z 25005KT 10SM VCTS SCT050 SCT110 30/20 A3001
Conditions at: KUNV (STATE COLLEGE , PA, US) observed 1959 UTC 18 August 2019
Temperature: 30.0°C (86°F)
Dewpoint: 20.0°C (68°F) [RH = 55%]
Pressure (altimeter): 30.01 inches Hg (1016.3 mb)
Winds: from the WSW (250 degrees) at 6 MPH (5 knots; 2.6 m/s)
Visibility: 10 or more miles (16+ km)
Ceiling: at least 12,000 feet AGL
Clouds: scattered clouds at 5000 feet AGL
scattered clouds at 11000 feet AGL
Weather: VCTS  (thunderstorm in vicinity)

METAR text: KUNV 181953Z 21004KT 10SM SCT050 SCT110 31/20 A3002
Conditions at: KUNV (STATE COLLEGE , PA, US) observed 1953 UTC 18 August 2019
Temperature: 31.0°C (88°F)
Dewpoint: 20.0°C (68°F) [RH = 52%]
Pressure (altimeter): 30.02 inches Hg (1016.7 mb)
Winds: from the SSW (210 degrees) at 5 MPH (4 knots; 2.1 m/s)
Visibility: 10 or more miles (16+ km)
Ceiling: at least 12,000 feet AGL
Clouds: scattered clouds at 5000 feet AGL
scattered clouds at 11000 feet AGL
Weather: no significant weather observed at this time

METAR text: KUNV 181853Z 23011KT 10SM SCT050 31/20 A3002
Conditions at: KUNV (STATE COLLEGE , PA, US) observed 1853 UTC 18 August 2019
Temperature: 31.0°C (88°F)
Dewpoint: 20.0°C (68°F) [RH = 52%]
Pressure (altimeter): 30.02 inches Hg (1016.7 mb)
Winds: from the SW (230 degrees) at 13 MPH (11 knots; 5.7 m/s)
Visibility: 10 or more miles (16+ km)
Ceiling: at least 12,000 feet AGL
Clouds: scattered clouds at 5000 feet AGL
Weather: no significant weather observed at this time

METAR text: KUNV 181753Z 22010G15KT 10SM SCT050 30/20 A3002
Conditions at: KUNV (STATE COLLEGE , PA, US) observed 1753 UTC 18 August 2019
Temperature: 30.0°C (86°F)
Dewpoint: 20.0°C (68°F) [RH = 55%]
Pressure (altimeter): 30.02 inches Hg (1016.7 mb)
Winds: from the SW (220 degrees) at 12 MPH (10 knots; 5.1 m/s)
gusting to 17 MPH (15 knots; 7.7 m/s)
Visibility: 10 or more miles (16+ km)
Ceiling: at least 12,000 feet AGL
Clouds: scattered clouds at 5000 feet AGL
Weather: no significant weather observed at this time

METAR text: KUNV 181653Z COR 21009KT 10SM SCT050 30/20 A3004
Conditions at: KUNV (STATE COLLEGE , PA, US) observed 1653 UTC 18 August 2019
Temperature: 30.0°C (86°F)
Dewpoint: 20.0°C (68°F) [RH = 55%]
Pressure (altimeter): 30.04 inches Hg (1017.4 mb)
Winds: from the SSW (210 degrees) at 10 MPH (9 knots; 4.6 m/s)
Visibility: 10 or more miles (16+ km)
Ceiling: at least 12,000 feet AGL
Clouds: scattered clouds at 5000 feet AGL
Weather: no significant weather observed at this time

METAR text: KUNV 181553Z 19004KT 10SM SKC 29/20 A3005
Conditions at: KUNV (STATE COLLEGE , PA, US) observed 1553 UTC 18 August 2019
Temperature: 29.0°C (84°F)
Dewpoint: 20.0°C (68°F) [RH = 58%]
Pressure (altimeter): 30.05 inches Hg (1017.7 mb)
Winds: from the S (190 degrees) at 5 MPH (4 knots; 2.1 m/s)
Visibility: 10 or more miles (16+ km)
Ceiling: at least 12,000 feet AGL
Clouds: clear skies
Weather: no significant weather observed at this time

METAR text: KUNV 181453Z 23003KT 10SM SKC 26/20 A3007
Conditions at: KUNV (STATE COLLEGE , PA, US) observed 1453 UTC 18 August 2019
Temperature: 26.0°C (79°F)
Dewpoint: 20.0°C (68°F) [RH = 70%]
Pressure (altimeter): 30.07 inches Hg (1018.4 mb)
Winds: from the SW (230 degrees) at 3 MPH (3 knots; 1.5 m/s)
Visibility: 10 or more miles (16+ km)
Ceiling: at least 12,000 feet AGL
Clouds: clear skies
Weather: no significant weather observed at this time

METAR text: KUNV 181353Z 00000KT 10SM MIFG SKC 23/20 A3007
Conditions at: KUNV (STATE COLLEGE , PA, US) observed 1353 UTC 18 August 2019
Temperature: 23.0°C (73°F)
Dewpoint: 20.0°C (68°F) [RH = 83%]
Pressure (altimeter): 30.07 inches Hg (1018.4 mb)
Winds: calm
Visibility: 10 or more miles (16+ km)
Ceiling: at least 12,000 feet AGL
Clouds: clear skies
Weather: MIFG  (shallow fog)

METAR text: KUNV 181253Z 00000KT 10SM MIFG SCT001 19/19 A3007 RMK VIS E-SE 1
Conditions at: KUNV (STATE COLLEGE , PA, US) observed 1253 UTC 18 August 2019
Temperature: 19.0°C (66°F)
Dewpoint: 19.0°C (66°F) [RH = 100%]
Pressure (altimeter): 30.07 inches Hg (1018.4 mb)
Winds: calm
Visibility: 10 or more miles (16+ km)
Ceiling: at least 12,000 feet AGL
Clouds: scattered clouds at 100 feet AGL
Weather: MIFG  (shallow fog)

METAR text: KUNV 181228Z 00000KT 10SM MIFG SCT001 SCT050 19/19 A3007 RMK VIS N-NE 3/4
Conditions at: KUNV (STATE COLLEGE , PA, US) observed 1228 UTC 18 August 2019
Temperature: 19.0°C (66°F)
Dewpoint: 19.0°C (66°F) [RH = 100%]
Pressure (altimeter): 30.07 inches Hg (1018.4 mb)
Winds: calm
Visibility: 10 or more miles (16+ km)
Ceiling: at least 12,000 feet AGL
Clouds: scattered clouds at 100 feet AGL
scattered clouds at 5000 feet AGL
Weather: MIFG  (shallow fog)

METAR text: KUNV 181153Z COR 00000KT 1/2SM FG OVC001 18/18 A3006
Conditions at: KUNV (STATE COLLEGE , PA, US) observed 1153 UTC 18 August 2019
Temperature: 18.0°C (64°F)
Dewpoint: 18.0°C (64°F) [RH = 100%]
Pressure (altimeter): 30.06 inches Hg (1018.0 mb)
Winds: calm
Visibility: 0.50 miles (0.80 km)
Ceiling: 100 feet AGL
Clouds: overcast cloud deck at 100 feet AGL
Weather: FG  (fog)

METAR text: KUNV 181133Z 00000KT 1/8SM FG OVC001 17/17 A3005
Conditions at: KUNV (STATE COLLEGE , PA, US) observed 1133 UTC 18 August 2019
Temperature: 17.0°C (63°F)
Dewpoint: 17.0°C (63°F) [RH = 100%]
Pressure (altimeter): 30.05 inches Hg (1017.7 mb)
Winds: calm
Visibility: 0.13 miles (0.21 km)
Ceiling: 100 feet AGL
Clouds: overcast cloud deck at 100 feet AGL
Weather: FG  (fog)

METAR text: KUNV 181053Z 00000KT 10SM MIFG SKC 17/17 A3004
Conditions at: KUNV (STATE COLLEGE , PA, US) observed 1053 UTC 18 August 2019
Temperature: 17.0°C (63°F)
Dewpoint: 17.0°C (63°F) [RH = 100%]
Pressure (altimeter): 30.04 inches Hg (1017.4 mb)
Winds: calm
Visibility: 10 or more miles (16+ km)
Ceiling: at least 12,000 feet AGL
Clouds: clear skies
Weather: MIFG  (shallow fog)

METAR text: KUNV 180953Z 00000KT 5SM BR SKC 18/18 A3003
Conditions at: KUNV (STATE COLLEGE , PA, US) observed 0953 UTC 18 August 2019
Temperature: 18.0°C (64°F)
Dewpoint: 18.0°C (64°F) [RH = 100%]
Pressure (altimeter): 30.03 inches Hg (1017.0 mb)
Winds: calm
Visibility: 5 miles ( 8 km)
Ceiling: at least 12,000 feet AGL
Clouds: clear skies
Weather: BR  (mist)

METAR text: KUNV 180937Z AUTO 00000KT 2 1/2SM BR CLR 18/18 A3003 RMK AO2 T01750175
Conditions at: KUNV (STATE COLLEGE , PA, US) observed 0937 UTC 18 August 2019
Temperature: 17.5°C (64°F)
Dewpoint: 17.5°C (64°F) [RH = 100%]
Pressure (altimeter): 30.03 inches Hg (1017.0 mb)
Winds: calm
Visibility: 2.50 miles (4.02 km)
Ceiling: at least 12,000 feet AGL
Clouds: sky clear below 12,000 feet AGL
Weather: BR  (mist)

METAR text: KUNV 180919Z AUTO 00000KT 7SM SCT080 18/18 A3003 RMK AO2 LTG DSNT S T01750175
Conditions at: KUNV (STATE COLLEGE , PA, US) observed 0919 UTC 18 August 2019
Temperature: 17.5°C (64°F)
Dewpoint: 17.5°C (64°F) [RH = 100%]
Pressure (altimeter): 30.03 inches Hg (1017.0 mb)
Winds: calm
Visibility: 7 miles (11 km)
Ceiling: at least 12,000 feet AGL
Clouds: scattered clouds at 8000 feet AGL
Weather: automated observation with no human augmentation;
there may or may not be significant weather present at this time

METAR text: KUNV 180856Z AUTO 00000KT 10SM SCT080 18/18 A3003 RMK AO2 T01800177
Conditions at: KUNV (STATE COLLEGE , PA, US) observed 0856 UTC 18 August 2019
Temperature: 18.0°C (64°F)
Dewpoint: 17.7°C (64°F) [RH = 98%]
Pressure (altimeter): 30.03 inches Hg (1017.0 mb)
Winds: calm
Visibility: 10 or more miles (16+ km)
Ceiling: at least 12,000 feet AGL
Clouds: scattered clouds at 8000 feet AGL
Weather: automated observation with no human augmentation;
there may or may not be significant weather present at this time

METAR text: KUNV 180835Z AUTO 00000KT 7SM SCT070 SCT075 18/18 A3003 RMK AO2 T01770175
Conditions at: KUNV (STATE COLLEGE , PA, US) observed 0835 UTC 18 August 2019
Temperature: 17.7°C (64°F)
Dewpoint: 17.5°C (64°F) [RH = 99%]
Pressure (altimeter): 30.03 inches Hg (1017.0 mb)
Winds: calm
Visibility: 7 miles (11 km)
Ceiling: at least 12,000 feet AGL
Clouds: scattered clouds at 7000 feet AGL
scattered clouds at 7500 feet AGL
Weather: automated observation with no human augmentation;
there may or may not be significant weather present at this time

METAR text: KUNV 180816Z AUTO 00000KT 10SM CLR 18/18 A3003 RMK AO2 T01830180
Conditions at: KUNV (STATE COLLEGE , PA, US) observed 0816 UTC 18 August 2019
Temperature: 18.3°C (65°F)
Dewpoint: 18.0°C (64°F) [RH = 98%]
Pressure (altimeter): 30.03 inches Hg (1017.0 mb)
Winds: calm
Visibility: 10 or more miles (16+ km)
Ceiling: at least 12,000 feet AGL
Clouds: sky clear below 12,000 feet AGL
Weather: automated observation with no human augmentation;
there may or may not be significant weather present at this time

METAR text: KUNV 180758Z AUTO 00000KT 10SM CLR 18/18 A3003 RMK AO2 LTG DSNT NW T01790176
Conditions at: KUNV (STATE COLLEGE , PA, US) observed 0758 UTC 18 August 2019
Temperature: 17.9°C (64°F)
Dewpoint: 17.6°C (64°F) [RH = 98%]
Pressure (altimeter): 30.03 inches Hg (1017.0 mb)
Winds: calm
Visibility: 10 or more miles (16+ km)
Ceiling: at least 12,000 feet AGL
Clouds: sky clear below 12,000 feet AGL
Weather: automated observation with no human augmentation;
there may or may not be significant weather present at this time

METAR text: KUNV 180740Z AUTO 00000KT 10SM CLR 18/18 A3003 RMK AO2 T01780175
Conditions at: KUNV (STATE COLLEGE , PA, US) observed 0740 UTC 18 August 2019
Temperature: 17.8°C (64°F)
Dewpoint: 17.5°C (64°F) [RH = 98%]
Pressure (altimeter): 30.03 inches Hg (1017.0 mb)
Winds: calm
Visibility: 10 or more miles (16+ km)
Ceiling: at least 12,000 feet AGL
Clouds: sky clear below 12,000 feet AGL
Weather: automated observation with no human augmentation;
there may or may not be significant weather present at this time

METAR text: KUNV 180735Z AUTO 00000KT 10SM CLR 18/18 A3003 RMK AO2 T01800178
Conditions at: KUNV (STATE COLLEGE , PA, US) observed 0735 UTC 18 August 2019
Temperature: 18.0°C (64°F)
Dewpoint: 17.8°C (64°F) [RH = 99%]
Pressure (altimeter): 30.03 inches Hg (1017.0 mb)
Winds: calm
Visibility: 10 or more miles (16+ km)
Ceiling: at least 12,000 feet AGL
Clouds: sky clear below 12,000 feet AGL
Weather: automated observation with no human augmentation;
there may or may not be significant weather present at this time

METAR text: KUNV 180716Z AUTO 00000KT 10SM CLR 18/18 A3002 RMK AO2 T01810180
Conditions at: KUNV (STATE COLLEGE , PA, US) observed 0716 UTC 18 August 2019
Temperature: 18.1°C (65°F)
Dewpoint: 18.0°C (64°F) [RH = 99%]
Pressure (altimeter): 30.02 inches Hg (1016.7 mb)
Winds: calm
Visibility: 10 or more miles (16+ km)
Ceiling: at least 12,000 feet AGL
Clouds: sky clear below 12,000 feet AGL
Weather: automated observation with no human augmentation;
there may or may not be significant weather present at this time

Forecast for: KUNV (STATE COLLEGE , PA, US)
Text: KUNV 191731Z 1918/2018 VRB03KT P6SM SCT050
Forecast period: 1800 to 2300 UTC 19 August 2019
Forecast type: FROM: standard forecast or significant change
Winds: variable direction winds at 3 MPH (3 knots; 1.5 m/s)
Visibility: 6 or more miles 10+ km)
Ceiling: at least 12,000 feet AGL
Clouds: scattered clouds at 5000 feet AGL
Weather: no significant weather forecast for this period
Text: FM192300 VRB03KT P6SM SCT100
Forecast period: 2300 UTC 19 August 2019 to 0900 UTC 20 August 2019
Forecast type: FROM: standard forecast or significant change
Winds: variable direction winds at 3 MPH (3 knots; 1.5 m/s)
Visibility: 6 or more miles 10+ km)
Ceiling: at least 12,000 feet AGL
Clouds: scattered clouds at 10000 feet AGL
Weather: no significant weather forecast for this period
Text: FM200900 VRB03KT 1/2SM FG BKN001
Forecast period: 0900 to 1500 UTC 20 August 2019
Forecast type: FROM: standard forecast or significant change
Winds: variable direction winds at 3 MPH (3 knots; 1.5 m/s)
Visibility: 0.50 miles (0.80 km)
Ceiling: 100 feet AGL
Clouds: broken clouds at 100 feet AGL
Weather: FG  (fog)
Text: FM201500 VRB03KT P6SM SCT250
Forecast period: 1500 to 1800 UTC 20 August 2019
Forecast type: FROM: standard forecast or significant change
Winds: variable direction winds at 3 MPH (3 knots; 1.5 m/s)
Visibility: 6 or more miles 10+ km)
Ceiling: at least 12,000 feet AGL
Clouds: scattered clouds at 25000 feet AGL
Weather: no significant weather forecast for this period